createdAt,value
2022-10-23T00:01:24.597Z,6.28
2022-10-23T00:04:15.481Z,5.45
2022-10-23T00:07:03.779Z,5.70
2022-10-23T00:09:52.893Z,6.13
2022-10-23T00:12:42.930Z,5.50
2022-10-23T00:15:31.555Z,5.47
2022-10-23T00:18:19.836Z,5.13
2022-10-23T00:21:09.927Z,6.00
2022-10-23T00:23:58.341Z,6.17
2022-10-23T00:26:46.668Z,5.80
2022-10-23T00:29:36.300Z,6.28
2022-10-23T00:32:24.828Z,5.93
2022-10-23T00:35:13.163Z,6.70
2022-10-23T00:42:18.559Z,6.20
2022-10-23T00:45:19.447Z,6.05
2022-10-23T00:48:07.744Z,6.03
2022-10-23T00:50:56.493Z,5.75
2022-10-23T00:53:47.995Z,5.43
2022-10-23T00:56:41.388Z,5.65
2022-10-23T00:59:30.557Z,5.60
2022-10-23T01:02:20.381Z,5.88
2022-10-23T01:05:09.254Z,5.40
2022-10-23T01:08:03.351Z,5.30
2022-10-23T01:10:57.995Z,5.47
2022-10-23T01:13:57.718Z,5.15
2022-10-23T01:16:52.573Z,5.50
2022-10-23T01:19:57.042Z,5.40
2022-10-23T01:23:07.265Z,5.40
2022-10-23T01:26:16.271Z,6.10
2022-10-23T01:29:12.813Z,6.45
2022-10-23T01:32:07.600Z,5.38
2022-10-23T01:35:03.429Z,5.53
2022-10-23T01:37:56.132Z,5.60
2022-10-23T01:40:49.639Z,5.45
2022-10-23T01:43:42.985Z,5.95
2022-10-23T01:46:35.424Z,5.43
2022-10-23T01:49:24.901Z,5.55
2022-10-23T01:52:15.321Z,4.93
2022-10-23T01:55:03.696Z,5.80
2022-10-23T01:57:53.829Z,5.57
2022-10-23T02:00:45.424Z,5.20
2022-10-23T02:03:37.487Z,6.05
2022-10-23T02:06:25.874Z,5.30
2022-10-23T02:09:14.297Z,6.57
2022-10-23T02:12:08.540Z,5.32
2022-10-23T02:15:01.856Z,5.00
2022-10-23T02:17:56.464Z,5.35
2022-10-23T02:20:53.661Z,4.82
2022-10-23T02:23:52.580Z,5.45
2022-10-23T02:26:49.314Z,5.25
2022-10-23T02:29:42.468Z,5.50
2022-10-23T02:32:31.058Z,5.25
2022-10-23T02:35:21.961Z,5.40
2022-10-23T02:38:30.618Z,5.80
2022-10-23T02:41:41.814Z,5.95
2022-10-23T02:48:40.117Z,5.68
2022-10-23T02:51:37.086Z,6.28
2022-10-23T02:54:43.382Z,5.85
2022-10-23T02:57:40.137Z,5.70
2022-10-23T03:00:47.223Z,6.50
2022-10-23T03:03:40.600Z,5.97
2022-10-23T03:06:28.917Z,6.18
2022-10-23T03:09:17.279Z,6.35
2022-10-23T03:12:07.507Z,6.65
2022-10-23T03:14:55.789Z,5.68
2022-10-23T03:17:49.694Z,6.40
2022-10-23T03:20:37.989Z,7.05
2022-10-23T03:23:26.279Z,6.68
2022-10-23T03:26:14.580Z,6.55
2022-10-23T03:29:04.247Z,7.70
2022-10-23T03:31:52.534Z,7.13
2022-10-23T03:34:40.836Z,7.97
2022-10-23T03:37:29.196Z,6.78
2022-10-23T03:40:17.599Z,6.68
2022-10-23T03:43:05.924Z,7.15
2022-10-23T03:45:56.986Z,7.95
2022-10-23T03:51:33.676Z,14.25
2022-10-23T03:54:23.293Z,21.35
2022-10-23T03:57:11.555Z,10.57
2022-10-23T03:59:59.856Z,11.65
2022-10-23T04:02:49.734Z,9.43
2022-10-23T04:05:39.099Z,13.57
2022-10-23T04:08:27.736Z,14.90
2022-10-23T04:11:16.043Z,13.30
2022-10-23T04:14:04.418Z,13.00
2022-10-23T04:16:52.753Z,10.48
2022-10-23T04:19:42.457Z,9.52
2022-10-23T04:22:30.752Z,9.63
2022-10-23T04:25:19.038Z,8.55
2022-10-23T04:28:07.388Z,7.72
2022-10-23T04:30:55.715Z,7.30
2022-10-23T04:33:44.047Z,7.53
2022-10-23T04:36:33.736Z,7.50
2022-10-23T04:39:22.047Z,7.32
2022-10-23T04:42:10.425Z,9.25
2022-10-23T04:44:58.759Z,8.02
2022-10-23T04:47:47.109Z,7.60
2022-10-23T04:50:35.495Z,7.30
2022-10-23T04:53:25.360Z,7.55
2022-10-23T04:56:15.365Z,6.15
2022-10-23T05:01:57.098Z,6.60
2022-10-23T05:04:45.493Z,6.47
2022-10-23T05:07:34.357Z,6.53
2022-10-23T05:10:24.004Z,6.60
2022-10-23T05:13:12.342Z,6.35
2022-10-23T05:16:01.042Z,6.10
2022-10-23T05:18:49.931Z,5.93
2022-10-23T05:21:40.138Z,6.07
2022-10-23T05:24:28.553Z,6.50
2022-10-23T05:27:18.202Z,6.43
2022-10-23T05:30:07.602Z,6.72
2022-10-23T05:32:56.196Z,6.97
2022-10-23T05:35:46.025Z,7.43
2022-10-23T05:38:36.201Z,9.90
2022-10-23T05:41:24.625Z,12.77
2022-10-23T05:44:14.279Z,10.25
2022-10-23T05:47:02.598Z,10.65
2022-10-23T05:49:50.886Z,27.48
2022-10-23T05:52:39.198Z,26.35
2022-10-23T05:55:27.807Z,17.20
2022-10-23T05:58:16.127Z,14.38
2022-10-23T06:01:08.298Z,9.93
2022-10-23T06:03:56.789Z,10.20
2022-10-23T06:06:46.614Z,9.63
2022-10-23T06:09:35.083Z,10.50
2022-10-23T06:12:24.025Z,11.13
2022-10-23T06:15:12.571Z,10.95
2022-10-23T06:18:03.754Z,10.63
2022-10-23T06:20:52.084Z,14.93
2022-10-23T06:23:41.500Z,14.98
2022-10-23T06:26:29.810Z,11.10
2022-10-23T06:29:18.098Z,9.95
2022-10-23T06:32:06.707Z,10.65
2022-10-23T06:34:56.345Z,10.35
2022-10-23T06:37:44.624Z,10.68
2022-10-23T06:40:33.142Z,12.27
2022-10-23T06:43:21.510Z,11.90
2022-10-23T06:46:10.023Z,10.57
2022-10-23T06:48:58.293Z,10.27
2022-10-23T06:51:47.960Z,9.63
2022-10-23T06:54:36.318Z,10.55
2022-10-23T06:57:24.638Z,12.75
2022-10-23T07:00:14.463Z,10.88
2022-10-23T07:03:02.803Z,10.00
2022-10-23T07:05:51.130Z,8.70
2022-10-23T07:08:41.029Z,9.43
2022-10-23T07:11:29.331Z,9.07
2022-10-23T07:14:17.675Z,9.90
2022-10-23T07:17:05.989Z,8.93
2022-10-23T07:19:54.355Z,10.05
2022-10-23T07:22:42.841Z,10.00
2022-10-23T07:25:32.668Z,10.13
2022-10-23T07:28:21.016Z,9.65
2022-10-23T07:31:10.142Z,8.70
2022-10-23T07:33:58.909Z,8.55
2022-10-23T07:36:47.211Z,8.40
2022-10-23T07:39:35.579Z,9.50
2022-10-23T07:42:25.337Z,10.88
2022-10-23T07:45:13.694Z,9.40
2022-10-23T07:48:02.026Z,9.27
2022-10-23T07:50:50.579Z,8.98
2022-10-23T07:53:39.979Z,8.70
2022-10-23T07:56:30.072Z,8.45
2022-10-23T07:59:19.771Z,9.10
2022-10-23T08:02:12.213Z,8.93
2022-10-23T08:05:00.592Z,8.73
2022-10-23T08:07:48.907Z,8.75
2022-10-23T08:10:37.290Z,7.85
2022-10-23T08:13:26.107Z,7.75
2022-10-23T08:16:15.907Z,8.82
2022-10-23T08:19:05.057Z,8.88
2022-10-23T08:21:55.312Z,9.52
2022-10-23T08:24:43.996Z,7.65
2022-10-23T08:27:32.546Z,8.68
2022-10-23T08:30:21.063Z,8.68
2022-10-23T08:33:11.007Z,8.57
2022-10-23T08:35:59.435Z,7.90
2022-10-23T08:38:48.277Z,7.93
2022-10-23T08:41:39.041Z,8.10
2022-10-23T08:44:32.218Z,7.68
2022-10-23T08:47:27.515Z,7.32
2022-10-23T08:53:28.638Z,7.45
2022-10-23T08:56:24.788Z,7.35
2022-10-23T08:59:22.758Z,7.50
2022-10-23T09:02:18.225Z,7.40
2022-10-23T09:05:17.394Z,7.65
2022-10-23T09:08:33.116Z,7.68
2022-10-23T09:11:29.028Z,7.45
2022-10-23T09:14:42.088Z,6.85
2022-10-23T09:17:32.531Z,6.88
2022-10-23T09:20:24.705Z,6.93
2022-10-23T09:23:17.298Z,6.60
2022-10-23T09:26:13.771Z,6.55
2022-10-23T09:29:15.418Z,6.97
2022-10-23T09:32:06.383Z,6.57
2022-10-23T09:37:53.145Z,6.68
2022-10-23T09:40:43.992Z,6.45
2022-10-23T09:43:32.515Z,7.07
2022-10-23T09:46:21.054Z,6.82
2022-10-23T09:49:18.338Z,6.88
2022-10-23T09:52:24.494Z,7.35
2022-10-23T09:55:24.160Z,8.30
2022-10-23T09:58:22.100Z,7.18
2022-10-23T10:01:25.141Z,7.00
2022-10-23T10:04:13.795Z,7.40
2022-10-23T10:07:04.204Z,6.32
2022-10-23T10:09:54.391Z,6.28
2022-10-23T10:12:50.817Z,6.72
2022-10-23T10:15:48.843Z,6.22
2022-10-23T10:18:41.202Z,6.30
2022-10-23T10:21:34.117Z,6.65
2022-10-23T10:24:29.197Z,5.72
2022-10-23T10:27:31.639Z,5.68
2022-10-23T10:30:23.878Z,6.13
2022-10-23T10:33:19.019Z,4.78
2022-10-23T10:36:18.652Z,5.32
2022-10-23T10:39:16.440Z,5.32
2022-10-23T10:42:21.185Z,5.50
2022-10-23T10:45:34.441Z,4.85
2022-10-23T10:48:36.077Z,5.38
2022-10-23T10:51:31.673Z,5.60
2022-10-23T10:54:34.085Z,5.13
2022-10-23T10:57:32.112Z,5.30
2022-10-23T11:00:22.999Z,5.25
2022-10-23T11:06:13.287Z,5.75
2022-10-23T11:09:19.638Z,6.03
2022-10-23T11:12:15.421Z,5.18
2022-10-23T11:15:04.392Z,5.43
2022-10-23T11:17:56.925Z,5.20
2022-10-23T11:20:57.563Z,4.50
2022-10-23T11:24:07.090Z,4.40
2022-10-23T11:27:29.048Z,4.15
2022-10-23T11:30:26.718Z,4.63
2022-10-23T11:33:50.254Z,4.93
2022-10-23T11:36:46.888Z,3.90
2022-10-23T11:39:37.700Z,7.18
2022-10-23T11:45:35.042Z,4.13
2022-10-23T11:48:36.395Z,3.83
2022-10-23T11:51:29.362Z,3.78
2022-10-23T11:54:27.382Z,3.80
2022-10-23T11:57:18.268Z,3.80
2022-10-23T12:03:21.861Z,3.70
2022-10-23T12:09:10.193Z,3.90
2022-10-23T12:12:17.507Z,3.58
2022-10-23T12:15:24.773Z,3.30
2022-10-23T12:18:16.831Z,3.90
2022-10-23T12:21:05.658Z,3.28
2022-10-23T12:24:17.490Z,2.70
2022-10-23T12:27:17.910Z,2.65
2022-10-23T12:30:23.806Z,3.13
2022-10-23T12:33:25.855Z,2.75
2022-10-23T12:36:39.134Z,2.80
2022-10-23T12:39:29.380Z,2.88
2022-10-23T12:42:24.318Z,3.03
2022-10-23T12:45:19.743Z,3.58
2022-10-23T12:48:08.101Z,5.15
2022-10-23T12:50:57.630Z,3.47
2022-10-23T12:53:50.052Z,3.00
2022-10-23T12:56:39.487Z,5.78
2022-10-23T12:59:37.005Z,4.88
2022-10-23T13:02:27.300Z,3.25
2022-10-23T13:05:20.592Z,3.65
2022-10-23T13:08:12.207Z,3.17
2022-10-23T13:11:00.919Z,3.42
2022-10-23T13:13:50.011Z,2.85
2022-10-23T13:16:39.826Z,3.63
2022-10-23T13:19:28.582Z,2.83
2022-10-23T13:22:21.139Z,3.15
2022-10-23T13:25:23.848Z,2.53
2022-10-23T13:28:24.607Z,2.42
2022-10-23T13:31:29.536Z,2.63
2022-10-23T13:34:25.510Z,2.40
2022-10-23T13:37:26.034Z,2.95
2022-10-23T13:40:24.352Z,2.00
2022-10-23T13:43:16.114Z,2.75
2022-10-23T13:46:04.654Z,2.40
2022-10-23T13:48:53.553Z,2.45
2022-10-23T13:51:47.575Z,2.20
2022-10-23T13:54:35.917Z,2.10
2022-10-23T13:57:24.235Z,3.30
2022-10-23T14:00:13.531Z,2.22
2022-10-23T14:03:01.837Z,2.88
2022-10-23T14:05:50.182Z,3.60
2022-10-23T14:08:39.923Z,2.72
2022-10-23T14:11:28.354Z,2.47
2022-10-23T14:14:16.693Z,3.05
2022-10-23T14:17:05.056Z,2.55
2022-10-23T14:19:53.473Z,2.50
2022-10-23T14:22:42.085Z,2.28
2022-10-23T14:25:41.938Z,2.45
2022-10-23T14:28:35.151Z,1.83
2022-10-23T14:31:24.190Z,2.00
2022-10-23T14:34:13.512Z,2.10
2022-10-23T14:37:08.771Z,1.95
2022-10-23T14:39:57.988Z,2.25
2022-10-23T14:42:48.206Z,2.63
2022-10-23T14:45:37.513Z,1.70
2022-10-23T14:48:25.878Z,2.83
2022-10-23T14:51:20.107Z,2.10
2022-10-23T14:54:09.345Z,2.10
2022-10-23T14:56:57.689Z,2.20
2022-10-23T14:59:47.350Z,2.20
2022-10-23T15:02:35.884Z,2.53
2022-10-23T15:05:24.321Z,2.30
2022-10-23T15:08:12.674Z,1.98
2022-10-23T15:11:02.165Z,4.65
2022-10-23T15:13:50.604Z,2.78
2022-10-23T15:16:42.163Z,2.28
2022-10-23T15:19:30.836Z,2.72
2022-10-23T15:22:19.865Z,2.22
2022-10-23T15:25:11.250Z,2.55
2022-10-23T15:28:00.522Z,2.42
2022-10-23T15:30:49.215Z,3.42
2022-10-23T15:33:38.980Z,2.78
2022-10-23T15:36:27.578Z,2.80
2022-10-23T15:39:18.450Z,2.40
2022-10-23T15:44:55.195Z,2.83
2022-10-23T15:47:43.776Z,2.83
2022-10-23T15:50:33.581Z,2.40
2022-10-23T15:53:21.909Z,2.67
2022-10-23T15:56:10.334Z,3.47
2022-10-23T15:58:58.968Z,3.40
2022-10-23T16:01:47.372Z,2.50
2022-10-23T16:04:35.788Z,2.08
2022-10-23T16:07:25.485Z,2.60
2022-10-23T16:10:13.837Z,2.20
2022-10-23T16:13:02.239Z,2.58
2022-10-23T16:15:50.538Z,2.50
2022-10-23T16:18:39.412Z,2.55
2022-10-23T16:21:29.666Z,2.25
2022-10-23T16:24:19.323Z,2.45
2022-10-23T16:27:07.815Z,2.33
2022-10-23T16:29:56.160Z,3.25
2022-10-23T16:32:44.681Z,2.65
2022-10-23T16:35:33.010Z,2.63
2022-10-23T16:38:21.621Z,2.70
2022-10-23T16:41:11.728Z,2.70
2022-10-23T16:44:00.258Z,2.20
2022-10-23T16:46:48.782Z,2.55
2022-10-23T16:49:37.165Z,2.72
2022-10-23T16:52:25.931Z,2.35
2022-10-23T16:55:14.348Z,2.50
2022-10-23T16:58:04.052Z,2.47
2022-10-23T17:01:01.785Z,2.17
2022-10-23T17:03:52.637Z,2.42
2022-10-23T17:06:41.180Z,2.38
2022-10-23T17:09:31.306Z,2.40
2022-10-23T17:12:19.637Z,1.98
2022-10-23T17:15:11.176Z,2.50
2022-10-23T17:17:59.510Z,3.28
2022-10-23T17:20:47.839Z,2.65
2022-10-23T17:23:36.312Z,2.35
2022-10-23T17:26:24.658Z,3.15
2022-10-23T17:29:15.107Z,3.05
2022-10-23T17:32:05.372Z,3.22
2022-10-23T17:34:53.702Z,2.72
2022-10-23T17:37:42.047Z,3.00
2022-10-23T17:40:32.961Z,2.67
2022-10-23T17:46:11.196Z,2.17
2022-10-23T17:51:58.147Z,2.60
2022-10-23T17:54:46.479Z,2.53
2022-10-23T17:57:35.283Z,2.92
2022-10-23T18:00:23.748Z,2.53
2022-10-23T18:03:14.529Z,2.67
2022-10-23T18:06:10.081Z,3.90
2022-10-23T18:08:58.971Z,10.52
2022-10-23T18:11:48.705Z,3.25
2022-10-23T18:14:38.280Z,4.13
2022-10-23T18:17:26.608Z,3.10
2022-10-23T18:20:15.849Z,3.50
2022-10-23T18:23:05.584Z,3.28
2022-10-23T18:25:54.056Z,2.80
2022-10-23T18:28:43.091Z,3.30
2022-10-23T18:31:31.636Z,2.85
2022-10-23T18:34:22.037Z,3.10
2022-10-23T18:37:10.502Z,2.40
2022-10-23T18:40:00.271Z,2.70
2022-10-23T18:42:49.882Z,3.50
2022-10-23T18:45:38.395Z,3.85
2022-10-23T18:48:26.831Z,3.80
2022-10-23T18:51:16.906Z,3.00
2022-10-23T18:54:07.554Z,2.58
2022-10-23T18:56:57.671Z,2.47
2022-10-23T18:59:46.047Z,2.75
2022-10-23T19:02:34.579Z,2.67
2022-10-23T19:05:22.977Z,2.80
2022-10-23T19:08:11.419Z,3.13
2022-10-23T19:11:00.412Z,2.78
2022-10-23T19:13:50.146Z,2.75
2022-10-23T19:16:42.164Z,2.78
2022-10-23T19:19:35.745Z,2.85
2022-10-23T19:22:25.276Z,2.50
2022-10-23T19:25:17.917Z,3.00
2022-10-23T19:28:06.446Z,3.20
2022-10-23T19:30:56.313Z,3.20
2022-10-23T19:33:44.617Z,3.08
2022-10-23T19:36:33.214Z,3.28
2022-10-23T19:39:21.936Z,3.38
2022-10-23T19:42:11.710Z,3.47
2022-10-23T19:45:00.038Z,3.05
2022-10-23T19:47:50.024Z,2.88
2022-10-23T19:50:38.332Z,3.40
2022-10-23T19:53:26.750Z,3.40
2022-10-23T19:56:15.343Z,3.53
2022-10-23T19:59:04.039Z,3.40
2022-10-23T20:01:52.488Z,3.17
2022-10-23T20:04:42.398Z,3.03
2022-10-23T20:07:30.836Z,3.45
2022-10-23T20:10:19.500Z,3.30
2022-10-23T20:13:19.240Z,3.40
2022-10-23T20:16:08.777Z,3.58
2022-10-23T20:18:57.954Z,3.70
2022-10-23T20:21:49.261Z,4.25
2022-10-23T20:24:37.601Z,3.53
2022-10-23T20:27:26.109Z,3.53
2022-10-23T20:30:14.599Z,3.58
2022-10-23T20:33:03.024Z,3.47
2022-10-23T20:35:52.823Z,3.85
2022-10-23T20:38:42.571Z,4.32
2022-10-23T20:41:33.294Z,3.80
2022-10-23T20:44:21.806Z,3.50
2022-10-23T20:47:10.115Z,3.10
2022-10-23T20:49:58.475Z,3.53
2022-10-23T20:52:46.964Z,3.60
2022-10-23T20:55:41.150Z,3.58
2022-10-23T20:58:29.481Z,3.30
2022-10-23T21:01:19.216Z,3.38
2022-10-23T21:04:07.752Z,2.90
2022-10-23T21:07:09.606Z,3.40
2022-10-23T21:09:59.414Z,4.43
2022-10-23T21:12:49.102Z,4.40
2022-10-23T21:15:37.413Z,5.57
2022-10-23T21:18:45.121Z,5.10
2022-10-23T21:21:35.981Z,5.25
2022-10-23T21:24:25.104Z,5.45
2022-10-23T21:27:15.132Z,5.55
2022-10-23T21:30:06.327Z,5.37
2022-10-23T21:32:54.649Z,4.15
2022-10-23T21:35:52.313Z,4.57
2022-10-23T21:38:48.602Z,5.00
2022-10-23T21:41:36.953Z,4.87
2022-10-23T21:44:25.286Z,5.20
2022-10-23T21:47:14.963Z,5.28
2022-10-23T21:50:03.328Z,5.15
2022-10-23T21:52:52.855Z,4.57
2022-10-23T21:55:41.183Z,5.10
2022-10-23T21:58:29.540Z,4.32
2022-10-23T22:01:18.019Z,3.92
2022-10-23T22:04:07.830Z,5.13
2022-10-23T22:06:56.218Z,4.25
2022-10-23T22:09:45.488Z,4.15
2022-10-23T22:12:33.812Z,4.35
2022-10-23T22:15:22.179Z,4.72
2022-10-23T22:18:10.519Z,5.25
2022-10-23T22:21:03.175Z,5.15
2022-10-23T22:23:51.994Z,5.53
2022-10-23T22:26:42.202Z,4.53
2022-10-23T22:29:31.137Z,3.95
2022-10-23T22:35:08.531Z,3.70
2022-10-23T22:37:58.219Z,3.40
2022-10-23T22:40:46.807Z,3.75
2022-10-23T22:43:35.761Z,4.10
2022-10-23T22:46:24.591Z,3.42
2022-10-23T22:49:13.152Z,3.40
2022-10-23T22:52:01.476Z,3.78
2022-10-23T22:54:51.153Z,3.85
2022-10-23T22:57:39.488Z,3.85
2022-10-23T23:00:27.788Z,4.05
2022-10-23T23:03:16.267Z,3.90
2022-10-23T23:06:06.310Z,4.07
2022-10-23T23:08:55.184Z,4.10
2022-10-23T23:11:51.326Z,4.30
2022-10-23T23:14:41.544Z,3.80
2022-10-23T23:17:29.873Z,3.70
2022-10-23T23:20:18.410Z,3.72
2022-10-23T23:23:06.790Z,3.90
2022-10-23T23:25:55.201Z,3.38
2022-10-23T23:28:44.915Z,3.95
2022-10-23T23:31:33.252Z,4.18
2022-10-23T23:34:22.209Z,4.03
2022-10-23T23:37:10.566Z,4.28
2022-10-23T23:39:59.481Z,4.15
2022-10-23T23:42:47.838Z,4.50
2022-10-23T23:45:37.527Z,3.78
2022-10-23T23:48:26.441Z,3.95
2022-10-23T23:51:15.229Z,4.20
2022-10-23T23:54:03.638Z,3.65
2022-10-23T23:56:51.958Z,4.00
2022-10-23T23:59:41.151Z,4.05
